Cavanagh, Argentina
Current Conditions -  °F | °C
As of 6:00 AM on Monday 24 Nov 2014 (Local Time) from SAAR Reporting Station
Broken Clouds Broken Clouds  
Wind Chill: 21°   Ceiling: 10000
Heat Index: 21°   Visibility: 6mi
Dew Point: 16°   Wind: 5mph
Humidity: 73%   Direction: 20°NNE
Pressure: 29.65"   Gusts: NA
Location:  33.48°S, 62.35°W
Report Text: SAAR 240900Z 02004KT 9999 FEW022 BKN10021/16 Q1004
Loading
Personal Weather Stations






























Interactive Weather Map New forecast layout! Learn more

10-Day Weather Forecast

Advertisements
Track Severe Weather on mobile